Time;durP1;ratioP1;P1;durP2;ratioP2;P2;SDS_P1;SDS_P2;PMS_P1;PMS_P2;Temp;Humidity;BMP_temperature;BMP_pressure;BME280_temperature;BME280_humidity;BME280_pressure;Samples;Min_cycle;Max_cycle;Signal;HPM_P1;HPM_P2
2022/05/25 00:00:44;;;;;;;1.30;0.70;;;14.20;99.90;;;;;;4991259;28;20113;-73
2022/05/25 00:03:10;;;;;;;2.13;0.68;;;14.20;99.90;;;;;;4976799;28;20029;-72
2022/05/25 00:05:36;;;;;;;1.58;0.70;;;14.30;99.90;;;;;;4989418;28;20426;-73
2022/05/25 00:08:03;;;;;;;1.17;0.93;;;14.30;99.90;;;;;;4994421;28;20105;-73
2022/05/25 00:10:29;;;;;;;1.65;0.70;;;14.30;99.90;;;;;;4990557;28;20023;-73
2022/05/25 00:12:55;;;;;;;1.27;0.70;;;14.20;99.90;;;;;;4975909;28;20064;-73
2022/05/25 00:15:20;;;;;;;1.77;0.68;;;14.20;99.90;;;;;;4990361;28;20027;-73
2022/05/25 00:17:47;;;;;;;1.17;0.80;;;14.20;99.90;;;;;;4990711;28;20030;-74
2022/05/25 00:20:13;;;;;;;2.22;0.68;;;14.20;99.90;;;;;;4990250;28;20021;-73
2022/05/25 00:22:43;;;;;;;1.80;0.60;;;14.20;99.90;;;;;;4980943;28;20026;-73
2022/05/25 00:25:15;;;;;;;1.10;0.77;;;14.20;99.90;;;;;;4984573;28;20090;-73
2022/05/25 00:27:41;;;;;;;1.45;0.70;;;14.20;99.90;;;;;;5004581;28;20062;-73
2022/05/25 00:30:08;;;;;;;1.90;0.70;;;14.10;99.90;;;;;;4992644;28;20034;-73
2022/05/25 00:32:34;;;;;;;1.45;0.73;;;14.10;99.90;;;;;;4993956;28;20568;-73
2022/05/25 00:34:59;;;;;;;6.35;0.85;;;14.00;99.90;;;;;;4989751;28;20156;-73
2022/05/25 00:37:25;;;;;;;2.20;0.68;;;14.10;99.90;;;;;;4971768;28;20089;-73
2022/05/25 00:39:51;;;;;;;1.40;0.80;;;14.10;99.90;;;;;;4967619;28;20026;-73
2022/05/25 00:42:17;;;;;;;1.45;0.70;;;14.00;99.90;;;;;;4976531;28;20032;-73
2022/05/25 00:44:43;;;;;;;1.70;0.70;;;14.10;99.90;;;;;;4991265;28;20099;-73
2022/05/25 00:47:11;;;;;;;2.47;0.85;;;14.10;99.90;;;;;;4993304;28;20053;-73
2022/05/25 00:49:37;;;;;;;1.95;0.95;;;14.10;99.90;;;;;;4989932;28;20089;-73
2022/05/25 00:52:06;;;;;;;5.47;0.95;;;14.10;99.90;;;;;;4991162;28;20057;-73
2022/05/25 00:54:39;;;;;;;2.10;1.08;;;14.10;99.90;;;;;;4987762;28;20062;-73
2022/05/25 00:57:10;;;;;;;4.97;1.10;;;14.10;99.90;;;;;;4974547;28;20101;-74
2022/05/25 01:00:13;;;;;;;3.17;1.10;;;14.10;99.90;;;;;;4974885;28;20355;-73
2022/05/25 01:02:41;;;;;;;1.42;0.90;;;14.10;99.90;;;;;;4989051;28;20031;-73
2022/05/25 01:05:07;;;;;;;3.83;1.00;;;14.10;99.90;;;;;;4983364;23;20038;-78
2022/05/25 01:08:06;;;;;;;2.22;0.90;;;14.10;99.90;;;;;;4998905;28;20073;-78
2022/05/25 01:10:50;;;;;;;1.38;0.68;;;14.10;99.90;;;;;;4995687;28;20026;-78
2022/05/25 01:13:36;;;;;;;4.60;0.80;;;14.10;99.90;;;;;;4994480;28;20080;-79
2022/05/25 01:16:24;;;;;;;1.23;0.70;;;14.10;99.90;;;;;;4989350;28;20039;-79
2022/05/25 01:19:19;;;;;;;1.73;0.82;;;14.10;99.90;;;;;;4977534;28;20035;-78
2022/05/25 01:22:14;;;;;;;1.40;0.85;;;14.10;99.90;;;;;;4978201;28;20019;-78
2022/05/25 01:25:17;;;;;;;0.95;0.70;;;14.10;99.90;;;;;;4974473;28;20026;-79
2022/05/25 01:27:49;;;;;;;1.70;0.60;;;14.10;99.90;;;;;;4961807;28;20034;-78
2022/05/25 01:30:16;;;;;;;1.42;0.80;;;14.10;99.90;;;;;;4977332;28;20027;-78
2022/05/25 01:33:03;;;;;;;3.22;0.82;;;14.10;99.90;;;;;;4963382;28;20179;-77
2022/05/25 01:35:32;;;;;;;0.90;0.57;;;14.20;99.90;;;;;;4974956;28;20058;-79
2022/05/25 01:38:21;;;;;;;1.52;0.95;;;14.20;99.90;;;;;;4983331;28;20023;-79
2022/05/25 01:41:19;;;;;;;1.35;0.63;;;14.10;99.90;;;;;;4980368;28;20022;-79
2022/05/25 01:43:57;;;;;;;4.70;0.80;;;14.10;99.90;;;;;;4982101;28;20046;-79
2022/05/25 01:46:37;;;;;;;1.17;0.80;;;14.10;99.90;;;;;;4996984;23;20045;-78
2022/05/25 01:49:16;;;;;;;1.40;0.77;;;14.10;99.90;;;;;;4994223;28;20034;-77
2022/05/25 01:52:00;;;;;;;2.47;0.60;;;14.10;99.90;;;;;;4993634;28;20520;-77
2022/05/25 01:54:33;;;;;;;1.17;0.60;;;14.10;99.90;;;;;;5002450;28;20038;-77
2022/05/25 01:57:05;;;;;;;1.77;0.60;;;14.10;99.90;;;;;;4981517;28;20094;-77
2022/05/25 01:59:36;;;;;;;3.10;0.70;;;14.10;99.90;;;;;;4971773;28;20081;-78
2022/05/25 02:05:03;;;;;;;1.25;0.70;;;14.00;99.90;;;;;;5005656;28;20060;-77
2022/05/25 02:07:50;;;;;;;0.73;0.60;;;14.10;99.90;;;;;;4992936;28;20034;-79
2022/05/25 02:10:22;;;;;;;1.48;0.80;;;14.10;99.90;;;;;;4958276;28;20070;-77
2022/05/25 02:13:19;;;;;;;1.38;0.75;;;14.10;99.90;;;;;;4992050;28;20509;-77
2022/05/25 02:16:29;;;;;;;2.08;0.50;;;14.10;99.90;;;;;;4977199;28;20049;-79
2022/05/25 02:19:40;;;;;;;1.00;0.70;;;14.10;99.90;;;;;;4963639;28;20482;-79
2022/05/25 02:22:17;;;;;;;3.47;1.10;;;14.00;99.90;;;;;;4951473;28;20038;-79
2022/05/25 02:25:06;;;;;;;4.25;1.08;;;14.10;99.90;;;;;;4978097;28;20030;-79
2022/05/25 02:27:41;;;;;;;0.98;0.65;;;14.00;99.90;;;;;;4997065;28;20034;-78
2022/05/25 02:30:14;;;;;;;1.77;0.85;;;14.00;99.90;;;;;;4993282;28;20228;-78
2022/05/25 02:33:20;;;;;;;1.00;0.70;;;14.00;99.90;;;;;;4981130;28;20030;-78
2022/05/25 02:35:50;;;;;;;4.60;1.52;;;14.00;99.90;;;;;;4999288;28;20026;-78
2022/05/25 02:38:19;;;;;;;3.63;1.00;;;14.00;99.90;;;;;;4966819;28;20114;-79
2022/05/25 02:40:47;;;;;;;1.92;1.00;;;14.00;99.90;;;;;;4980295;28;20069;-78
2022/05/25 02:43:13;;;;;;;2.90;0.80;;;14.00;99.90;;;;;;4981693;28;20054;-77
2022/05/25 02:45:42;;;;;;;2.13;0.82;;;13.90;99.90;;;;;;4994963;28;20026;-77
2022/05/25 02:48:08;;;;;;;1.20;0.63;;;13.90;99.90;;;;;;4987741;28;20122;-78
2022/05/25 02:50:35;;;;;;;2.17;0.68;;;13.90;99.90;;;;;;4997615;28;20026;-78
2022/05/25 02:53:22;;;;;;;1.10;0.57;;;13.90;99.90;;;;;;4981316;28;20034;-78
2022/05/25 02:55:54;;;;;;;6.80;0.82;;;13.90;99.90;;;;;;4980273;28;20038;-78
2022/05/25 02:58:19;;;;;;;2.63;0.80;;;13.90;99.90;;;;;;4998974;28;20499;-77
2022/05/25 03:00:45;;;;;;;2.97;0.80;;;13.80;99.90;;;;;;4998658;28;20022;-79
2022/05/25 03:03:12;;;;;;;1.58;0.63;;;13.80;99.90;;;;;;4999173;28;20030;-78
2022/05/25 03:05:41;;;;;;;2.40;0.73;;;13.80;99.90;;;;;;4998677;28;20166;-78
2022/05/25 03:08:20;;;;;;;2.25;0.70;;;13.80;99.90;;;;;;4991695;28;20037;-79
2022/05/25 03:10:47;;;;;;;2.40;0.70;;;13.80;99.90;;;;;;4998376;28;20018;-78
2022/05/25 03:13:13;;;;;;;1.00;0.70;;;13.80;99.90;;;;;;4981395;28;20383;-78
2022/05/25 03:15:44;;;;;;;3.88;0.60;;;13.80;99.90;;;;;;4996078;28;20367;-78
2022/05/25 03:18:16;;;;;;;0.90;0.60;;;13.80;99.90;;;;;;4985553;28;20022;-78
2022/05/25 03:20:49;;;;;;;2.20;0.60;;;13.80;99.90;;;;;;4998211;28;20038;-78
2022/05/25 03:23:18;;;;;;;1.60;0.70;;;13.80;99.90;;;;;;4980091;28;20061;-78
2022/05/25 03:25:47;;;;;;;1.38;0.80;;;13.80;99.90;;;;;;4997692;28;20030;-79
2022/05/25 03:28:14;;;;;;;1.67;0.88;;;13.70;99.90;;;;;;4993404;28;20031;-78
2022/05/25 03:30:45;;;;;;;2.40;0.93;;;13.80;99.90;;;;;;4981704;28;20041;-78
2022/05/25 03:33:15;;;;;;;1.30;0.90;;;13.80;99.90;;;;;;5002535;28;20030;-78
2022/05/25 03:35:46;;;;;;;1.42;1.00;;;13.70;99.90;;;;;;4981657;28;20069;-78
2022/05/25 03:38:12;;;;;;;2.55;1.20;;;13.80;99.90;;;;;;5000429;28;20030;-79
2022/05/25 03:40:41;;;;;;;3.05;0.95;;;13.80;99.90;;;;;;5008529;28;20380;-76
2022/05/25 03:43:09;;;;;;;2.65;0.88;;;13.80;99.90;;;;;;4998587;28;20061;-79
2022/05/25 03:45:35;;;;;;;2.63;1.05;;;13.70;99.90;;;;;;4997923;28;20030;-78
2022/05/25 03:48:07;;;;;;;2.85;1.13;;;13.70;99.90;;;;;;4997204;28;20121;-79
2022/05/25 03:50:38;;;;;;;3.17;1.17;;;13.70;99.90;;;;;;4997378;28;20019;-79
2022/05/25 03:53:12;;;;;;;1.58;1.00;;;13.80;99.90;;;;;;4996715;28;20447;-78
2022/05/25 03:55:38;;;;;;;2.20;0.95;;;13.70;99.90;;;;;;4979883;28;20060;-79
2022/05/25 03:58:03;;;;;;;3.50;0.82;;;13.80;99.90;;;;;;4997533;28;20386;-78
2022/05/25 04:00:34;;;;;;;3.33;0.70;;;13.80;99.90;;;;;;4997547;28;20053;-78
2022/05/25 04:03:02;;;;;;;2.45;0.80;;;13.80;99.90;;;;;;4973865;28;20026;-78
2022/05/25 04:05:29;;;;;;;1.20;0.77;;;13.80;99.90;;;;;;4997575;28;20100;-79
2022/05/25 04:07:56;;;;;;;2.30;1.05;;;13.80;99.90;;;;;;4979891;28;20088;-77
2022/05/25 04:10:28;;;;;;;1.60;0.90;;;13.80;99.90;;;;;;4984191;28;20058;-79
2022/05/25 04:13:01;;;;;;;1.40;0.90;;;13.80;99.90;;;;;;4979691;28;20504;-78
2022/05/25 04:15:32;;;;;;;3.60;0.85;;;13.80;99.90;;;;;;4977569;28;20383;-78
2022/05/25 04:18:10;;;;;;;2.47;1.30;;;13.80;99.90;;;;;;4993210;28;20034;-78
2022/05/25 04:20:42;;;;;;;3.30;0.80;;;13.80;99.90;;;;;;4979055;28;20569;-78
2022/05/25 04:23:12;;;;;;;2.63;0.70;;;13.70;99.90;;;;;;4982167;28;20639;-79
2022/05/25 04:25:40;;;;;;;1.95;1.00;;;13.70;99.90;;;;;;4995789;28;20026;-79
2022/05/25 04:28:09;;;;;;;1.17;0.70;;;13.70;99.90;;;;;;4997183;28;20037;-79
2022/05/25 04:30:38;;;;;;;1.33;0.77;;;13.60;99.90;;;;;;4997617;28;20019;-79
2022/05/25 04:33:13;;;;;;;3.92;0.85;;;13.60;99.90;;;;;;4979279;28;20034;-75
2022/05/25 04:35:40;;;;;;;2.08;0.68;;;13.60;99.90;;;;;;4996579;28;20491;-77
2022/05/25 04:38:13;;;;;;;2.60;0.70;;;13.70;99.90;;;;;;4978903;28;20491;-78
2022/05/25 04:40:41;;;;;;;2.10;0.82;;;13.60;99.90;;;;;;5001522;28;20022;-78
2022/05/25 04:43:18;;;;;;;1.20;0.77;;;13.60;99.90;;;;;;4996286;28;20525;-79
2022/05/25 04:45:46;;;;;;;0.95;0.77;;;13.60;99.90;;;;;;4996991;28;20507;-79
2022/05/25 04:48:13;;;;;;;1.60;0.50;;;13.60;99.90;;;;;;4997184;28;20386;-78
2022/05/25 04:50:45;;;;;;;1.90;1.02;;;13.60;99.90;;;;;;4996188;28;20023;-78
2022/05/25 04:53:19;;;;;;;2.97;0.90;;;13.60;99.90;;;;;;4996632;28;20472;-78
2022/05/25 04:58:35;;;;;;;3.30;1.10;;;13.60;99.90;;;;;;4997047;28;20053;-78
2022/05/25 05:01:06;;;;;;;2.17;1.00;;;13.70;99.90;;;;;;5006884;28;20022;-79
2022/05/25 05:03:32;;;;;;;1.05;0.85;;;13.70;99.90;;;;;;5002495;28;20118;-79
2022/05/25 05:06:13;;;;;;;1.85;0.90;;;13.70;99.90;;;;;;5004699;28;20106;-77
2022/05/25 05:08:39;;;;;;;1.75;0.70;;;13.70;99.90;;;;;;4996106;28;20054;-78
2022/05/25 05:11:09;;;;;;;2.88;0.70;;;13.80;99.90;;;;;;4984015;28;20497;-77
2022/05/25 05:13:42;;;;;;;1.05;0.57;;;13.80;99.90;;;;;;5007968;28;20125;-79
2022/05/25 05:16:11;;;;;;;0.80;0.70;;;13.90;99.90;;;;;;4991449;28;20510;-79
2022/05/25 05:18:41;;;;;;;1.65;0.90;;;13.90;99.90;;;;;;4996949;28;20045;-78
2022/05/25 05:21:17;;;;;;;1.80;0.90;;;13.90;99.90;;;;;;4995594;28;20025;-77
2022/05/25 05:23:46;;;;;;;2.78;0.90;;;13.90;99.90;;;;;;4965682;28;20046;-78
2022/05/25 05:26:14;;;;;;;1.58;0.75;;;13.90;99.90;;;;;;4995240;28;20101;-78
2022/05/25 05:28:41;;;;;;;1.52;0.80;;;13.90;99.90;;;;;;4992359;28;20439;-69
2022/05/25 05:31:08;;;;;;;7.75;1.55;;;13.90;99.90;;;;;;4996755;28;20065;-69
2022/05/25 05:33:34;;;;;;;1.25;1.02;;;13.90;99.90;;;;;;4988562;28;20509;-69
2022/05/25 05:36:17;;;;;;;2.05;1.30;;;14.00;99.90;;;;;;4994027;28;20034;-78
2022/05/25 05:38:59;;;;;;;2.78;0.90;;;14.10;99.90;;;;;;4995710;28;20023;-78
2022/05/25 05:41:32;;;;;;;2.33;1.00;;;14.20;99.90;;;;;;4985916;28;20022;-68
2022/05/25 05:44:03;;;;;;;5.82;1.25;;;14.20;99.90;;;;;;4994685;28;20103;-68
2022/05/25 05:46:34;;;;;;;2.50;1.25;;;14.30;99.90;;;;;;4975037;28;20451;-68
2022/05/25 05:49:05;;;;;;;6.53;1.50;;;14.40;99.90;;;;;;4990904;28;20026;-69
2022/05/25 05:51:35;;;;;;;6.05;1.67;;;14.50;99.90;;;;;;4974408;28;20031;-77
2022/05/25 05:54:05;;;;;;;2.47;1.20;;;14.80;99.90;;;;;;5000487;28;20022;-78
2022/05/25 05:56:34;;;;;;;2.10;0.85;;;15.10;99.90;;;;;;4981915;28;20045;-78
2022/05/25 05:59:04;;;;;;;3.38;1.00;;;15.50;99.90;;;;;;4989350;28;20026;-78
2022/05/25 06:01:32;;;;;;;1.85;0.95;;;15.80;99.90;;;;;;4980573;28;20029;-78
2022/05/25 06:04:01;;;;;;;2.55;0.88;;;16.00;99.90;;;;;;4983785;28;20030;-78
2022/05/25 06:06:30;;;;;;;2.83;1.00;;;16.10;99.90;;;;;;5002100;28;20054;-78
2022/05/25 06:09:02;;;;;;;1.33;0.80;;;16.10;99.90;;;;;;4986206;28;20007;-80
2022/05/25 06:11:32;;;;;;;3.00;1.30;;;16.00;99.90;;;;;;5000101;28;20037;-78
2022/05/25 06:14:01;;;;;;;6.07;1.10;;;16.00;99.90;;;;;;5000033;28;20498;-78
2022/05/25 06:19:37;;;;;;;3.25;0.90;;;16.10;99.90;;;;;;5000293;28;20046;-78
2022/05/25 06:22:31;;;;;;;2.67;1.02;;;16.20;99.90;;;;;;5000040;28;20066;-78
2022/05/25 06:24:57;;;;;;;;;;;16.30;99.90;;;;;;4982727;28;20022;-79
2022/05/25 06:27:23;;;;;;;4.25;0.82;;;16.40;99.90;;;;;;5000680;28;20373;-77
2022/05/25 06:29:49;;;;;;;2.95;0.98;;;16.40;99.90;;;;;;4990533;28;20026;-77
2022/05/25 06:32:18;;;;;;;1.08;0.80;;;16.50;99.90;;;;;;5001527;28;20097;-78
2022/05/25 06:34:55;;;;;;;2.58;0.80;;;16.50;99.90;;;;;;4992064;28;20022;-76
2022/05/25 06:37:24;;;;;;;1.13;0.70;;;16.50;99.90;;;;;;4998960;28;20041;-78
2022/05/25 06:39:56;;;;;;;1.10;0.80;;;16.60;99.90;;;;;;4994642;28;20097;-78
2022/05/25 06:42:28;;;;;;;1.55;0.80;;;16.60;99.90;;;;;;4995550;28;20018;-77
2022/05/25 06:44:54;;;;;;;0.88;0.70;;;16.70;99.90;;;;;;4999475;28;20061;-78
2022/05/25 06:47:30;;;;;;;3.15;0.90;;;16.80;99.90;;;;;;4982715;28;20034;-76
2022/05/25 06:49:59;;;;;;;1.73;0.75;;;16.90;99.40;;;;;;4998668;28;20065;-79
2022/05/25 06:52:25;;;;;;;1.23;0.77;;;17.00;99.30;;;;;;5000317;28;20026;-78
2022/05/25 06:55:00;;;;;;;1.27;0.52;;;17.10;98.80;;;;;;4981701;28;20053;-81
2022/05/25 06:57:29;;;;;;;1.67;0.80;;;17.10;98.10;;;;;;4997375;28;20027;-80
2022/05/25 06:59:55;;;;;;;2.45;0.95;;;17.20;98.70;;;;;;4979818;28;20034;-81
2022/05/25 07:02:22;;;;;;;2.28;0.68;;;17.20;98.40;;;;;;4982154;28;20031;-81
2022/05/25 07:04:48;;;;;;;1.45;0.82;;;17.20;98.00;;;;;;4994808;28;20039;-80
2022/05/25 07:07:14;;;;;;;3.50;0.80;;;17.00;97.20;;;;;;4992429;28;20045;-80
2022/05/25 07:09:39;;;;;;;2.00;0.85;;;17.00;97.80;;;;;;4983219;28;20036;-77
2022/05/25 07:12:06;;;;;;;2.80;0.80;;;17.00;97.80;;;;;;5000754;28;20022;-79
2022/05/25 07:14:32;;;;;;;2.42;0.85;;;16.90;97.80;;;;;;5000133;28;20045;-79
2022/05/25 07:17:02;;;;;;;1.20;0.90;;;16.90;98.10;;;;;;4998647;28;20026;-78
2022/05/25 07:19:27;;;;;;;6.53;1.15;;;17.00;97.40;;;;;;4987113;28;20518;-77
2022/05/25 07:21:53;;;;;;;2.25;1.10;;;17.00;97.70;;;;;;4998837;28;20094;-79
2022/05/25 07:24:25;;;;;;;4.35;0.90;;;17.10;97.50;;;;;;4981941;28;20026;-80
2022/05/25 07:26:51;;;;;;;1.60;0.80;;;17.10;97.30;;;;;;4982231;28;20018;-78
2022/05/25 07:29:17;;;;;;;1.67;0.80;;;16.90;97.10;;;;;;4999785;28;20096;-80
2022/05/25 07:31:49;;;;;;;3.55;0.90;;;17.00;97.00;;;;;;4997944;28;20022;-79
2022/05/25 07:34:23;;;;;;;1.35;0.60;;;17.00;97.00;;;;;;4999866;28;20022;-78
2022/05/25 07:36:55;;;;;;;1.13;0.63;;;17.10;96.60;;;;;;4999448;28;20027;-77
2022/05/25 07:39:24;;;;;;;2.15;0.77;;;17.30;96.60;;;;;;5001037;28;20033;-76
2022/05/25 07:41:52;;;;;;;2.38;0.77;;;17.40;96.30;;;;;;4991033;28;20130;-76
2022/05/25 07:44:27;;;;;;;1.48;0.57;;;17.60;96.10;;;;;;4981614;28;20019;-79
2022/05/25 07:46:53;;;;;;;2.67;0.60;;;17.60;95.70;;;;;;5011017;23;20491;-71
2022/05/25 07:49:18;;;;;;;2.42;0.80;;;17.70;94.30;;;;;;4998232;28;20026;-71
2022/05/25 07:51:45;;;;;;;2.60;0.60;;;17.60;94.20;;;;;;4996169;28;20310;-72
2022/05/25 07:54:11;;;;;;;0.85;0.65;;;17.70;94.50;;;;;;4985484;28;20470;-70
2022/05/25 07:56:38;;;;;;;2.25;0.80;;;17.70;93.80;;;;;;4999427;28;20029;-72
2022/05/25 07:59:07;;;;;;;1.98;0.73;;;17.70;93.40;;;;;;4993092;28;20033;-71
2022/05/25 08:07:10;;;;;;;1.95;0.77;;;17.90;91.90;;;;;;4990889;28;20029;-70
2022/05/25 08:09:36;;;;;;;1.00;0.73;;;18.00;92.10;;;;;;4993930;28;20045;-70
2022/05/25 08:12:05;;;;;;;3.20;0.90;;;18.10;92.60;;;;;;4977761;28;20022;-70
2022/05/25 08:14:31;;;;;;;5.35;1.33;;;18.10;92.60;;;;;;4990490;28;20041;-70
2022/05/25 08:16:57;;;;;;;4.10;1.00;;;18.20;93.00;;;;;;4992887;28;20372;-70
2022/05/25 08:19:23;;;;;;;2.53;0.80;;;18.20;93.20;;;;;;4978544;28;20019;-70
2022/05/25 08:21:51;;;;;;;1.80;0.70;;;18.30;92.90;;;;;;4978134;28;20030;-69
2022/05/25 08:24:18;;;;;;;3.63;0.73;;;18.40;92.80;;;;;;4998326;28;20030;-70
2022/05/25 08:26:43;;;;;;;3.00;0.85;;;18.40;92.80;;;;;;4976353;28;20110;-71
2022/05/25 08:29:10;;;;;;;1.02;0.70;;;18.50;92.20;;;;;;4991972;28;20452;-69
2022/05/25 08:31:36;;;;;;;3.22;0.82;;;18.60;91.50;;;;;;4995295;28;20026;-70
2022/05/25 08:34:02;;;;;;;4.72;0.93;;;18.70;91.50;;;;;;4980246;28;20023;-70
2022/05/25 08:36:27;;;;;;;3.22;0.95;;;18.80;91.50;;;;;;4992418;28;20042;-70
2022/05/25 08:38:55;;;;;;;2.33;0.85;;;18.80;90.80;;;;;;4991677;28;20022;-70
2022/05/25 08:41:30;;;;;;;2.70;0.70;;;18.90;90.80;;;;;;4990829;28;20089;-70
2022/05/25 08:43:58;;;;;;;2.55;0.88;;;18.90;90.70;;;;;;4994136;28;20403;-71
2022/05/25 08:46:25;;;;;;;4.45;1.38;;;18.90;90.50;;;;;;4998055;28;20029;-70
2022/05/25 08:48:52;;;;;;;0.57;0.57;;;18.90;90.40;;;;;;4990858;28;20030;-70
2022/05/25 08:51:25;;;;;;;5.32;0.90;;;19.00;90.30;;;;;;4973417;28;20506;-70
2022/05/25 08:53:52;;;;;;;1.88;0.70;;;18.90;90.10;;;;;;4974651;28;20026;-70
2022/05/25 08:56:43;;;;;;;3.40;0.80;;;18.80;89.80;;;;;;4975018;28;20398;-70
2022/05/25 08:59:18;;;;;;;1.58;0.60;;;18.70;89.40;;;;;;4988668;28;20052;-70
2022/05/25 09:02:06;;;;;;;1.67;0.80;;;18.70;88.20;;;;;;4993579;28;20022;-69
2022/05/25 09:04:37;;;;;;;2.75;0.70;;;18.60;88.10;;;;;;4992663;28;20026;-69
2022/05/25 09:07:25;;;;;;;1.55;1.02;;;18.50;88.40;;;;;;4999320;28;20080;-74
2022/05/25 09:09:52;;;;;;;1.05;0.80;;;18.50;88.20;;;;;;4971137;28;20434;-73
2022/05/25 09:12:30;;;;;;;1.88;0.70;;;18.60;86.20;;;;;;4993342;28;20026;-73
2022/05/25 09:15:03;;;;;;;1.10;0.70;;;18.50;85.70;;;;;;4992658;28;20022;-72
2022/05/25 09:17:53;;;;;;;1.00;0.53;;;18.60;85.20;;;;;;4984532;28;20410;-73
2022/05/25 09:20:44;;;;;;;1.85;0.80;;;18.70;84.20;;;;;;4987769;28;20049;-73
2022/05/25 09:23:12;;;;;;;2.88;0.65;;;18.70;83.70;;;;;;4975168;28;20034;-73
2022/05/25 09:25:40;;;;;;;0.98;0.50;;;18.90;84.30;;;;;;4995200;28;20037;-73
2022/05/25 09:28:19;;;;;;;1.75;0.60;;;18.90;84.70;;;;;;4993223;28;20034;-73
2022/05/25 09:30:48;;;;;;;1.88;0.70;;;18.90;83.40;;;;;;4975691;28;20045;-72
2022/05/25 09:33:32;;;;;;;2.42;0.57;;;18.80;83.60;;;;;;4974854;28;20030;-71
2022/05/25 09:36:07;;;;;;;0.82;0.70;;;18.80;82.30;;;;;;4989156;28;20026;-72
2022/05/25 09:38:53;;;;;;;3.40;0.77;;;18.80;83.30;;;;;;4974243;28;20042;-71
2022/05/25 09:41:22;;;;;;;1.35;0.70;;;18.90;84.50;;;;;;4990723;28;20097;-73
2022/05/25 09:43:54;;;;;;;0.90;0.40;;;19.00;83.20;;;;;;4992391;28;20387;-72
2022/05/25 09:46:42;;;;;;;3.35;0.68;;;19.00;82.80;;;;;;4987128;28;20030;-72
2022/05/25 09:49:13;;;;;;;1.23;0.52;;;19.10;83.10;;;;;;4970103;28;20034;-72
2022/05/25 09:51:50;;;;;;;0.43;0.30;;;19.30;82.90;;;;;;4966460;28;20034;-71
2022/05/25 09:54:29;;;;;;;1.40;0.50;;;19.40;82.70;;;;;;4989010;28;20031;-72
2022/05/25 09:57:09;;;;;;;2.40;0.50;;;19.50;82.30;;;;;;4975501;28;20033;-72
2022/05/25 09:59:42;;;;;;;1.02;0.50;;;19.60;80.60;;;;;;4987449;28;20150;-73
2022/05/25 10:02:26;;;;;;;2.42;0.65;;;19.80;79.00;;;;;;4986858;28;20097;-72
2022/05/25 10:04:52;;;;;;;4.85;0.90;;;20.00;79.40;;;;;;4993490;28;20483;-72
2022/05/25 10:07:20;;;;;;;1.35;0.60;;;20.10;78.90;;;;;;4993533;28;20034;-72
2022/05/25 10:09:52;;;;;;;0.73;0.60;;;20.30;78.40;;;;;;4975309;28;20108;-71
2022/05/25 10:12:30;;;;;;;2.47;0.90;;;20.30;78.00;;;;;;4992426;28;20032;-72
2022/05/25 10:15:08;;;;;;;1.20;0.75;;;20.50;77.20;;;;;;4990364;28;20039;-73
2022/05/25 10:17:40;;;;;;;2.33;1.00;;;20.60;77.20;;;;;;4990804;28;20379;-74
2022/05/25 10:20:19;;;;;;;0.95;0.52;;;20.60;74.60;;;;;;4993002;28;20154;-73
2022/05/25 10:22:45;;;;;;;0.98;0.80;;;20.50;75.00;;;;;;4992189;28;20023;-72
2022/05/25 10:25:35;;;;;;;3.03;0.73;;;20.60;75.10;;;;;;4992861;28;20038;-72
2022/05/25 10:28:01;;;;;;;1.95;0.80;;;20.50;75.20;;;;;;4975111;28;20030;-72
2022/05/25 10:36:47;;;;;;;2.95;1.35;;;20.90;74.90;;;;;;4992414;28;20077;-72
2022/05/25 10:39:39;;;;;;;4.30;1.23;;;21.00;74.20;;;;;;4977398;28;20571;-72
2022/05/25 10:42:23;;;;;;;1.45;0.80;;;21.10;73.00;;;;;;4989160;28;20113;-72
2022/05/25 10:45:09;;;;;;;2.90;1.13;;;21.10;72.80;;;;;;4984822;28;20108;-73
2022/05/25 10:47:54;;;;;;;0.93;0.63;;;21.00;72.90;;;;;;4992595;28;20042;-72
2022/05/25 10:50:23;;;;;;;3.83;1.15;;;20.80;72.50;;;;;;5006067;28;20101;-71
2022/05/25 10:53:16;;;;;;;2.75;0.80;;;20.60;73.40;;;;;;4997498;28;20045;-72
2022/05/25 10:55:55;;;;;;;4.35;0.95;;;20.50;74.40;;;;;;4984432;28;20495;-71
2022/05/25 10:58:59;;;;;;;3.30;0.95;;;20.50;74.30;;;;;;4995873;28;20058;-72
2022/05/25 11:01:49;;;;;;;1.10;0.75;;;20.40;74.30;;;;;;4978337;28;20406;-72
2022/05/25 11:04:30;;;;;;;2.58;0.77;;;20.50;74.10;;;;;;4994078;28;20056;-72
2022/05/25 11:07:01;;;;;;;1.65;0.80;;;20.60;71.60;;;;;;4995604;28;20387;-73
2022/05/25 11:09:56;;;;;;;2.33;1.20;;;20.70;71.80;;;;;;4978105;28;20018;-73
2022/05/25 11:12:55;;;;;;;1.52;0.70;;;20.80;71.50;;;;;;4993900;28;20038;-71
2022/05/25 11:15:36;;;;;;;2.08;0.80;;;21.00;72.20;;;;;;4960345;28;20141;-71
2022/05/25 11:18:31;;;;;;;5.00;0.82;;;21.10;71.00;;;;;;4989039;28;20033;-72
2022/05/25 11:21:17;;;;;;;4.38;0.70;;;21.10;70.60;;;;;;4988394;28;20054;-71
2022/05/25 11:23:54;;;;;;;3.97;0.90;;;21.10;69.90;;;;;;4991873;28;20531;-72
2022/05/25 11:26:34;;;;;;;2.45;1.05;;;21.10;70.60;;;;;;4981289;28;20030;-73
2022/05/25 11:29:03;;;;;;;0.95;0.70;;;21.10;70.00;;;;;;4973507;28;20036;-72
2022/05/25 11:31:35;;;;;;;3.08;0.90;;;21.10;70.20;;;;;;4981174;28;20022;-73
2022/05/25 11:34:26;;;;;;;4.28;0.90;;;21.00;70.40;;;;;;4981053;28;20423;-70
2022/05/25 11:37:29;;;;;;;1.65;0.70;;;20.90;70.20;;;;;;4980579;28;20490;-73
2022/05/25 11:40:39;;;;;;;1.30;0.80;;;20.70;70.00;;;;;;4952111;28;20101;-73
2022/05/25 11:43:50;;;;;;;1.95;0.60;;;20.50;70.40;;;;;;4913686;29;20198;-73
2022/05/25 11:46:24;;;;;;;2.03;0.90;;;20.30;69.90;;;;;;4993938;28;20026;-72
2022/05/25 11:49:13;;;;;;;2.38;0.70;;;20.10;70.10;;;;;;4994922;28;20487;-72
2022/05/25 11:52:31;;;;;;;3.05;0.88;;;20.00;71.50;;;;;;4992777;28;20501;-72
2022/05/25 11:55:06;;;;;;;1.10;0.73;;;19.90;71.80;;;;;;4943983;28;20053;-71
2022/05/25 11:57:56;;;;;;;2.70;0.60;;;19.90;71.30;;;;;;4992773;28;20029;-72
2022/05/25 12:00:43;;;;;;;1.10;0.60;;;20.10;71.10;;;;;;4990977;28;20481;-72
2022/05/25 12:03:12;;;;;;;1.35;0.57;;;20.10;69.00;;;;;;4993890;28;20034;-72
2022/05/25 12:06:06;;;;;;;1.52;0.60;;;20.20;69.60;;;;;;4976279;28;20100;-72
2022/05/25 12:08:32;;;;;;;;;;;20.50;71.00;;;;;;4994794;28;20040;-73
2022/05/25 12:11:06;;;;;;;5.00;0.90;;;20.60;69.50;;;;;;4987926;28;19921;-73
2022/05/25 12:13:55;;;;;;;2.15;0.63;;;20.80;68.90;;;;;;4988272;28;20026;-72
2022/05/25 12:16:24;;;;;;;1.70;0.70;;;21.00;69.10;;;;;;4988546;28;20117;-72
2022/05/25 12:19:12;;;;;;;1.90;0.63;;;21.20;68.30;;;;;;4990601;28;20030;-72
2022/05/25 12:21:41;;;;;;;2.50;0.80;;;21.40;67.70;;;;;;4975341;28;20030;-72
2022/05/25 12:24:13;;;;;;;2.35;0.70;;;21.60;67.50;;;;;;4977479;28;20113;-73
2022/05/25 12:26:40;;;;;;;1.42;0.50;;;21.60;66.20;;;;;;4973603;28;20018;-72
2022/05/25 12:29:12;;;;;;;1.95;0.47;;;21.60;65.20;;;;;;4993612;28;20117;-72
2022/05/25 12:31:38;;;;;;;1.48;0.88;;;21.60;64.90;;;;;;4992508;28;20022;-73
2022/05/25 12:34:05;;;;;;;4.40;0.50;;;21.50;65.80;;;;;;4990638;28;20061;-72
2022/05/25 12:36:32;;;;;;;2.17;0.70;;;21.30;65.80;;;;;;4985558;28;20023;-73
2022/05/25 12:38:58;;;;;;;1.58;0.70;;;21.30;67.00;;;;;;4974420;28;20030;-73
2022/05/25 12:41:23;;;;;;;1.35;0.70;;;21.20;67.60;;;;;;4993327;28;20626;-73
2022/05/25 12:50:01;;;;;;;2.15;0.80;;;21.10;67.80;;;;;;4987314;28;20140;-71
2022/05/25 12:52:26;;;;;;;1.13;0.55;;;21.10;68.00;;;;;;4985630;28;20485;-71
2022/05/25 12:54:59;;;;;;;1.75;0.60;;;21.10;68.40;;;;;;4984729;28;20022;-70
2022/05/25 12:57:42;;;;;;;2.95;0.80;;;21.10;68.50;;;;;;4984885;28;20034;-68
2022/05/25 13:00:39;;;;;;;2.05;0.52;;;21.30;68.20;;;;;;4987137;28;20554;-70
2022/05/25 13:03:37;;;;;;;1.77;0.60;;;21.60;68.00;;;;;;4971501;28;20034;-74
2022/05/25 13:06:05;;;;;;;1.08;0.40;;;21.70;67.40;;;;;;4953047;28;20432;-72
2022/05/25 13:08:46;;;;;;;0.60;0.43;;;22.00;65.80;;;;;;4970906;28;20030;-70
2022/05/25 13:11:36;;;;;;;1.52;1.02;;;22.20;64.10;;;;;;4979354;28;20034;-69
2022/05/25 13:14:08;;;;;;;1.95;1.35;;;22.30;64.00;;;;;;4987039;28;20061;-70
2022/05/25 13:16:46;;;;;;;1.48;0.65;;;22.20;63.60;;;;;;4990723;28;20026;-69
2022/05/25 13:19:15;;;;;;;1.77;0.98;;;22.20;62.70;;;;;;4986344;28;20546;-69
2022/05/25 13:22:02;;;;;;;4.70;0.85;;;22.00;62.50;;;;;;4985847;28;20073;-70
2022/05/25 13:24:47;;;;;;;2.30;0.60;;;21.90;62.80;;;;;;4966360;28;20038;-70
2022/05/25 13:27:12;;;;;;;2.38;0.70;;;21.80;62.20;;;;;;4970122;28;20034;-70
2022/05/25 13:29:47;;;;;;;1.85;0.73;;;21.80;62.30;;;;;;4987297;28;20080;-69
2022/05/25 13:32:27;;;;;;;2.35;0.90;;;21.90;62.90;;;;;;4983298;28;20034;-70
2022/05/25 13:34:52;;;;;;;2.08;0.93;;;21.90;62.70;;;;;;4986600;28;20080;-71
2022/05/25 13:37:18;;;;;;;1.88;0.65;;;21.90;63.50;;;;;;4984155;28;20034;-71
2022/05/25 13:39:44;;;;;;;1.95;0.50;;;22.00;63.10;;;;;;4985638;28;20023;-71
2022/05/25 13:42:16;;;;;;;1.00;0.47;;;22.10;63.50;;;;;;4990093;28;20381;-71
2022/05/25 13:44:48;;;;;;;1.67;0.60;;;22.10;62.90;;;;;;4987766;28;20096;-71
2022/05/25 13:47:22;;;;;;;0.60;0.50;;;22.00;63.10;;;;;;4988622;28;20074;-70
2022/05/25 13:49:51;;;;;;;2.85;0.70;;;22.00;62.90;;;;;;4982294;28;20118;-71